°C

Conditions at local time : on    Forecast:

Nearby METAR Reports

EGKA - Shoreham-By-Sea, United Kingdom
Distance from station: ENE 4mi, 6km
Updated: Thu, 01-Oct-2020 4:50pm BST
Few Clouds
Few Clouds
 Wind from SW
Wind: SW 14 mph , 22 km/h
Temperature: 14°C
Dew Point: 7°C
Humidity: 63%
Barometer: 997 hPa
Clouds: Few Clouds
Visibility: 6 miles , 10 km
Cloud details: Few Clouds 1097 m
2020/10/01 15:50 EGKA 011550Z 23012KT 9999 FEW036 14/07 Q0997
EGKK - London/Gatwick A, United Kingdom
Distance from station: NNE 24mi, 39km
Updated: Thu, 01-Oct-2020 4:50pm BST
Few Clouds
Few Clouds
 Wind from SW
Wind: SW 9 mph , 15 km/h
Temperature: 14°C
Dew Point: 6°C
Humidity: 59%
Barometer: 997 hPa
Clouds: Few Clouds
Visibility: 6 miles , 10 km
Cloud details: Few Clouds 1250 m
2020/10/01 15:50 EGKK 011550Z 23008KT 9999 FEW041 14/06 Q0997
 
EGLF - Farnborough, United Kingdom
Distance from station: NNW 37mi, 59km
Updated: Thu, 01-Oct-2020 4:50pm BST
Few Clouds
Few Clouds
 Wind from SW
Wind: SW 10 mph , 17 km/h
Temperature: 13°C
Dew Point: 6°C
Humidity: 63%
Barometer: 996 hPa
Clouds: Few Clouds
Visibility: 6 miles , 10 km
Cloud details: Few Clouds 1158 m
2020/10/01 15:50 EGLF 011550Z AUTO 22009KT 180V250 9999 FEW038/// 13/06 Q0996
EGVO - Odiham Raf, United Kingdom
Distance from station: NW 38mi, 61km
Updated: Thu, 01-Oct-2020 3:50pm BST
Few Clouds
Few Clouds
 Wind from SW
Wind: SW 13 mph , 20 km/h
Temperature: 14°C
Dew Point: 5°C
Humidity: 55%
Barometer: 997 hPa
Clouds: Few Clouds
Visibility: 6 miles , 10 km
Cloud details: Few Clouds 1219 m
2020/10/01 14:50 EGVO 011450Z 22011KT 9999 FEW040 14/05 Q0997 NOSIG RMK BLU BLU